Terminal Aerodrome Forecast
Issued by NWS Memphis, TN

Home | Current Version | Previous Version | Text Only | Print | Product List | Glossary On
Versions: 1 2 3 4 5 6 7 8 9 10 11 12 13 14 15 16 17 18 19 20 21 22 23 24 25 26 27
000
FTUS44 KMEG 240520
TAFMEM
TAF
KMEM 240520Z 2406/2506 15009KT P6SM SCT250
     FM240900 15012KT P6SM VCSH BKN050 OVC150
     FM241400 15015G22KT P6SM SCT050 BKN250
     FM250000 16015G22KT P6SM SCT025 BKN050
      TEMPO 2503/2506 3SM TSRA BKN025CB=

USA.gov is the U.S. government's official web portal to all federal, state and local government web resources and services.